sensor_id;sensor_type;location;lat;lon;timestamp;P1;durP1;ratioP1;P2;durP2;ratioP2
41514;SDS011;27247;48.020;16.720;2023-08-31T00:01:28;4.18;;;2.60;;
41514;SDS011;27247;48.020;16.720;2023-08-31T00:05:40;6.00;;;3.10;;
41514;SDS011;27247;48.020;16.720;2023-08-31T00:09:51;2.92;;;2.58;;
41514;SDS011;27247;48.020;16.720;2023-08-31T00:14:01;3.17;;;2.87;;
41514;SDS011;27247;48.020;16.720;2023-08-31T00:18:12;3.20;;;2.65;;
41514;SDS011;27247;48.020;16.720;2023-08-31T00:22:22;3.42;;;3.05;;
41514;SDS011;27247;48.020;16.720;2023-08-31T00:26:33;3.20;;;2.90;;
41514;SDS011;27247;48.020;16.720;2023-08-31T00:30:44;4.00;;;3.40;;
41514;SDS011;27247;48.020;16.720;2023-08-31T00:34:56;3.95;;;3.33;;
41514;SDS011;27247;48.020;16.720;2023-08-31T00:39:06;3.38;;;3.00;;
41514;SDS011;27247;48.020;16.720;2023-08-31T00:43:18;4.18;;;3.45;;
41514;SDS011;27247;48.020;16.720;2023-08-31T00:47:29;4.65;;;3.67;;
41514;SDS011;27247;48.020;16.720;2023-08-31T00:51:39;4.87;;;4.20;;
41514;SDS011;27247;48.020;16.720;2023-08-31T00:55:50;5.75;;;3.45;;
41514;SDS011;27247;48.020;16.720;2023-08-31T01:00:01;5.05;;;3.53;;
41514;SDS011;27247;48.020;16.720;2023-08-31T01:08:52;4.50;;;4.10;;
41514;SDS011;27247;48.020;16.720;2023-08-31T01:13:14;11.32;;;3.67;;
41514;SDS011;27247;48.020;16.720;2023-08-31T01:17:29;4.65;;;3.40;;
41514;SDS011;27247;48.020;16.720;2023-08-31T01:21:41;5.43;;;3.60;;
41514;SDS011;27247;48.020;16.720;2023-08-31T01:25:55;4.10;;;3.70;;
41514;SDS011;27247;48.020;16.720;2023-08-31T01:30:05;5.63;;;3.80;;
41514;SDS011;27247;48.020;16.720;2023-08-31T01:34:16;4.50;;;3.85;;
41514;SDS011;27247;48.020;16.720;2023-08-31T01:38:27;4.60;;;3.80;;
41514;SDS011;27247;48.020;16.720;2023-08-31T01:42:42;6.20;;;3.67;;
41514;SDS011;27247;48.020;16.720;2023-08-31T01:46:54;4.18;;;3.42;;
41514;SDS011;27247;48.020;16.720;2023-08-31T01:51:04;6.07;;;3.88;;
41514;SDS011;27247;48.020;16.720;2023-08-31T01:55:15;4.07;;;3.67;;
41514;SDS011;27247;48.020;16.720;2023-08-31T01:59:26;8.02;;;3.80;;
41514;SDS011;27247;48.020;16.720;2023-08-31T02:03:37;5.05;;;3.90;;
41514;SDS011;27247;48.020;16.720;2023-08-31T02:07:47;5.00;;;4.17;;
41514;SDS011;27247;48.020;16.720;2023-08-31T02:11:57;4.32;;;3.92;;
41514;SDS011;27247;48.020;16.720;2023-08-31T02:16:08;4.38;;;3.65;;
41514;SDS011;27247;48.020;16.720;2023-08-31T02:20:19;3.77;;;3.33;;
41514;SDS011;27247;48.020;16.720;2023-08-31T02:24:30;4.40;;;3.97;;
41514;SDS011;27247;48.020;16.720;2023-08-31T02:28:40;4.20;;;3.80;;
41514;SDS011;27247;48.020;16.720;2023-08-31T02:32:51;4.22;;;3.67;;
41514;SDS011;27247;48.020;16.720;2023-08-31T02:37:01;3.85;;;3.47;;
41514;SDS011;27247;48.020;16.720;2023-08-31T02:41:12;4.07;;;3.55;;
41514;SDS011;27247;48.020;16.720;2023-08-31T02:45:22;4.95;;;4.18;;
41514;SDS011;27247;48.020;16.720;2023-08-31T02:49:33;3.95;;;3.55;;
41514;SDS011;27247;48.020;16.720;2023-08-31T02:53:44;4.03;;;3.55;;
41514;SDS011;27247;48.020;16.720;2023-08-31T02:57:54;5.17;;;4.00;;
41514;SDS011;27247;48.020;16.720;2023-08-31T03:02:04;4.35;;;3.90;;
41514;SDS011;27247;48.020;16.720;2023-08-31T03:06:15;4.45;;;3.92;;
41514;SDS011;27247;48.020;16.720;2023-08-31T03:10:25;6.80;;;4.82;;
41514;SDS011;27247;48.020;16.720;2023-08-31T03:14:36;5.37;;;4.63;;
41514;SDS011;27247;48.020;16.720;2023-08-31T03:18:46;4.90;;;4.37;;
41514;SDS011;27247;48.020;16.720;2023-08-31T03:22:56;5.97;;;4.50;;
41514;SDS011;27247;48.020;16.720;2023-08-31T03:27:07;5.88;;;4.50;;
41514;SDS011;27247;48.020;16.720;2023-08-31T03:31:17;4.83;;;4.43;;
41514;SDS011;27247;48.020;16.720;2023-08-31T03:35:27;5.83;;;5.23;;
41514;SDS011;27247;48.020;16.720;2023-08-31T03:39:38;5.68;;;4.50;;
41514;SDS011;27247;48.020;16.720;2023-08-31T03:43:51;5.00;;;4.25;;
41514;SDS011;27247;48.020;16.720;2023-08-31T03:48:01;5.00;;;4.50;;
41514;SDS011;27247;48.020;16.720;2023-08-31T03:52:12;5.20;;;4.50;;
41514;SDS011;27247;48.020;16.720;2023-08-31T03:56:22;5.88;;;5.13;;
41514;SDS011;27247;48.020;16.720;2023-08-31T04:00:33;5.35;;;4.50;;
41514;SDS011;27247;48.020;16.720;2023-08-31T04:04:43;4.80;;;4.25;;
41514;SDS011;27247;48.020;16.720;2023-08-31T04:08:54;5.70;;;4.73;;
41514;SDS011;27247;48.020;16.720;2023-08-31T04:13:04;4.85;;;4.35;;
41514;SDS011;27247;48.020;16.720;2023-08-31T04:17:15;5.37;;;4.57;;
41514;SDS011;27247;48.020;16.720;2023-08-31T04:21:25;7.43;;;4.67;;
41514;SDS011;27247;48.020;16.720;2023-08-31T04:25:35;5.37;;;4.50;;
41514;SDS011;27247;48.020;16.720;2023-08-31T04:29:46;4.40;;;4.00;;
41514;SDS011;27247;48.020;16.720;2023-08-31T04:33:57;4.47;;;4.07;;
41514;SDS011;27247;48.020;16.720;2023-08-31T04:38:08;5.75;;;4.05;;
41514;SDS011;27247;48.020;16.720;2023-08-31T04:42:19;5.47;;;4.55;;
41514;SDS011;27247;48.020;16.720;2023-08-31T04:46:29;8.30;;;5.53;;
41514;SDS011;27247;48.020;16.720;2023-08-31T04:50:39;6.13;;;4.67;;
41514;SDS011;27247;48.020;16.720;2023-08-31T04:54:50;5.70;;;4.60;;
41514;SDS011;27247;48.020;16.720;2023-08-31T04:59:00;5.43;;;4.72;;
41514;SDS011;27247;48.020;16.720;2023-08-31T05:03:12;7.05;;;5.10;;
41514;SDS011;27247;48.020;16.720;2023-08-31T05:07:23;6.93;;;5.90;;
41514;SDS011;27247;48.020;16.720;2023-08-31T05:11:33;8.37;;;5.20;;
41514;SDS011;27247;48.020;16.720;2023-08-31T05:15:45;5.60;;;5.10;;
41514;SDS011;27247;48.020;16.720;2023-08-31T05:19:55;6.40;;;5.13;;
41514;SDS011;27247;48.020;16.720;2023-08-31T05:24:05;4.97;;;4.50;;
41514;SDS011;27247;48.020;16.720;2023-08-31T05:28:16;6.18;;;5.38;;
41514;SDS011;27247;48.020;16.720;2023-08-31T05:32:28;6.53;;;5.00;;
41514;SDS011;27247;48.020;16.720;2023-08-31T05:36:39;5.35;;;4.85;;
41514;SDS011;27247;48.020;16.720;2023-08-31T05:40:49;6.47;;;5.73;;
41514;SDS011;27247;48.020;16.720;2023-08-31T05:45:00;6.28;;;4.95;;
41514;SDS011;27247;48.020;16.720;2023-08-31T05:49:10;9.38;;;5.82;;
41514;SDS011;27247;48.020;16.720;2023-08-31T05:53:20;6.37;;;5.00;;
41514;SDS011;27247;48.020;16.720;2023-08-31T05:57:31;5.15;;;4.65;;
41514;SDS011;27247;48.020;16.720;2023-08-31T06:01:43;4.27;;;3.83;;
41514;SDS011;27247;48.020;16.720;2023-08-31T06:05:53;4.95;;;4.00;;
41514;SDS011;27247;48.020;16.720;2023-08-31T06:10:04;4.83;;;4.20;;
41514;SDS011;27247;48.020;16.720;2023-08-31T06:14:15;4.60;;;3.10;;
41514;SDS011;27247;48.020;16.720;2023-08-31T06:18:26;3.97;;;3.47;;
41514;SDS011;27247;48.020;16.720;2023-08-31T06:22:36;3.15;;;2.83;;
41514;SDS011;27247;48.020;16.720;2023-08-31T06:26:46;3.97;;;2.85;;
41514;SDS011;27247;48.020;16.720;2023-08-31T06:30:57;4.70;;;2.70;;
41514;SDS011;27247;48.020;16.720;2023-08-31T06:35:07;2.50;;;2.30;;
41514;SDS011;27247;48.020;16.720;2023-08-31T06:39:18;3.38;;;2.63;;
41514;SDS011;27247;48.020;16.720;2023-08-31T06:43:28;3.47;;;2.90;;
41514;SDS011;27247;48.020;16.720;2023-08-31T06:47:38;4.78;;;2.58;;
41514;SDS011;27247;48.020;16.720;2023-08-31T06:51:49;3.67;;;2.22;;
41514;SDS011;27247;48.020;16.720;2023-08-31T06:55:59;2.47;;;2.28;;
41514;SDS011;27247;48.020;16.720;2023-08-31T07:00:09;4.10;;;2.20;;
41514;SDS011;27247;48.020;16.720;2023-08-31T07:04:22;3.38;;;2.28;;
41514;SDS011;27247;48.020;16.720;2023-08-31T07:08:32;2.20;;;2.00;;
41514;SDS011;27247;48.020;16.720;2023-08-31T07:12:42;2.10;;;1.90;;
41514;SDS011;27247;48.020;16.720;2023-08-31T07:16:53;2.70;;;2.17;;
41514;SDS011;27247;48.020;16.720;2023-08-31T07:21:03;2.92;;;2.60;;
41514;SDS011;27247;48.020;16.720;2023-08-31T07:25:14;2.08;;;1.88;;
41514;SDS011;27247;48.020;16.720;2023-08-31T07:29:25;2.58;;;2.38;;
41514;SDS011;27247;48.020;16.720;2023-08-31T07:33:35;3.57;;;2.07;;
41514;SDS011;27247;48.020;16.720;2023-08-31T07:37:46;3.33;;;2.22;;
41514;SDS011;27247;48.020;16.720;2023-08-31T07:41:57;1.30;;;1.20;;
41514;SDS011;27247;48.020;16.720;2023-08-31T07:46:09;3.47;;;2.03;;
41514;SDS011;27247;48.020;16.720;2023-08-31T07:50:19;3.20;;;1.20;;
41514;SDS011;27247;48.020;16.720;2023-08-31T07:54:30;5.87;;;2.00;;
41514;SDS011;27247;48.020;16.720;2023-08-31T07:58:40;3.17;;;1.67;;
41514;SDS011;27247;48.020;16.720;2023-08-31T08:02:50;4.13;;;1.77;;
41514;SDS011;27247;48.020;16.720;2023-08-31T08:07:01;2.67;;;1.70;;
41514;SDS011;27247;48.020;16.720;2023-08-31T08:11:11;4.67;;;2.23;;
41514;SDS011;27247;48.020;16.720;2023-08-31T08:15:21;2.37;;;1.80;;
41514;SDS011;27247;48.020;16.720;2023-08-31T08:19:32;4.60;;;1.95;;
41514;SDS011;27247;48.020;16.720;2023-08-31T08:23:42;4.27;;;2.40;;
41514;SDS011;27247;48.020;16.720;2023-08-31T08:27:52;4.10;;;2.23;;
41514;SDS011;27247;48.020;16.720;2023-08-31T08:32:03;3.03;;;1.73;;
41514;SDS011;27247;48.020;16.720;2023-08-31T08:36:15;3.67;;;2.88;;
41514;SDS011;27247;48.020;16.720;2023-08-31T08:40:26;4.35;;;2.30;;
41514;SDS011;27247;48.020;16.720;2023-08-31T08:44:36;3.08;;;2.03;;
41514;SDS011;27247;48.020;16.720;2023-08-31T08:48:47;2.20;;;2.00;;
41514;SDS011;27247;48.020;16.720;2023-08-31T08:52:58;3.50;;;2.22;;
41514;SDS011;27247;48.020;16.720;2023-08-31T08:57:08;3.47;;;2.20;;
41514;SDS011;27247;48.020;16.720;2023-08-31T09:01:19;5.53;;;2.07;;
41514;SDS011;27247;48.020;16.720;2023-08-31T09:05:32;4.15;;;2.20;;
41514;SDS011;27247;48.020;16.720;2023-08-31T09:09:52;3.20;;;2.40;;
41514;SDS011;27247;48.020;16.720;2023-08-31T09:14:13;2.97;;;2.33;;
41514;SDS011;27247;48.020;16.720;2023-08-31T09:18:28;4.65;;;2.22;;
41514;SDS011;27247;48.020;16.720;2023-08-31T09:22:41;2.85;;;2.00;;
41514;SDS011;27247;48.020;16.720;2023-08-31T09:26:55;4.53;;;1.77;;
41514;SDS011;27247;48.020;16.720;2023-08-31T09:31:07;2.28;;;1.90;;
41514;SDS011;27247;48.020;16.720;2023-08-31T09:35:18;5.43;;;2.00;;
41514;SDS011;27247;48.020;16.720;2023-08-31T09:39:29;1.98;;;1.67;;
41514;SDS011;27247;48.020;16.720;2023-08-31T09:43:46;2.75;;;1.85;;
41514;SDS011;27247;48.020;16.720;2023-08-31T09:47:57;4.07;;;1.67;;
41514;SDS011;27247;48.020;16.720;2023-08-31T09:52:09;2.05;;;1.55;;
41514;SDS011;27247;48.020;16.720;2023-08-31T09:56:20;4.95;;;1.60;;
41514;SDS011;27247;48.020;16.720;2023-08-31T10:00:32;2.92;;;1.58;;
41514;SDS011;27247;48.020;16.720;2023-08-31T10:04:47;2.45;;;1.40;;
41514;SDS011;27247;48.020;16.720;2023-08-31T10:09:03;3.38;;;1.70;;
41514;SDS011;27247;48.020;16.720;2023-08-31T10:13:14;1.88;;;1.25;;
41514;SDS011;27247;48.020;16.720;2023-08-31T10:17:25;2.58;;;1.30;;
41514;SDS011;27247;48.020;16.720;2023-08-31T10:21:37;2.22;;;1.50;;
41514;SDS011;27247;48.020;16.720;2023-08-31T10:30:07;3.60;;;1.40;;
41514;SDS011;27247;48.020;16.720;2023-08-31T10:34:35;2.97;;;1.15;;
41514;SDS011;27247;48.020;16.720;2023-08-31T10:38:59;1.92;;;1.30;;
41514;SDS011;27247;48.020;16.720;2023-08-31T10:43:14;2.17;;;1.40;;
41514;SDS011;27247;48.020;16.720;2023-08-31T10:47:36;2.10;;;1.38;;
41514;SDS011;27247;48.020;16.720;2023-08-31T10:51:57;2.38;;;1.17;;
41514;SDS011;27247;48.020;16.720;2023-08-31T10:56:28;1.15;;;1.05;;
41514;SDS011;27247;48.020;16.720;2023-08-31T11:00:46;2.97;;;1.15;;
41514;SDS011;27247;48.020;16.720;2023-08-31T11:09:21;1.40;;;1.13;;
41514;SDS011;27247;48.020;16.720;2023-08-31T11:13:31;1.80;;;1.02;;
41514;SDS011;27247;48.020;16.720;2023-08-31T11:17:42;1.10;;;0.90;;
41514;SDS011;27247;48.020;16.720;2023-08-31T11:21:53;3.42;;;1.27;;
41514;SDS011;27247;48.020;16.720;2023-08-31T11:26:04;2.47;;;1.70;;
41514;SDS011;27247;48.020;16.720;2023-08-31T11:30:15;3.03;;;1.38;;
41514;SDS011;27247;48.020;16.720;2023-08-31T11:34:26;2.60;;;1.60;;
41514;SDS011;27247;48.020;16.720;2023-08-31T11:38:36;4.70;;;1.50;;
41514;SDS011;27247;48.020;16.720;2023-08-31T11:42:47;2.65;;;0.90;;
41514;SDS011;27247;48.020;16.720;2023-08-31T11:47:00;3.63;;;1.20;;
41514;SDS011;27247;48.020;16.720;2023-08-31T11:51:10;1.85;;;1.30;;
41514;SDS011;27247;48.020;16.720;2023-08-31T11:55:22;1.58;;;1.23;;
41514;SDS011;27247;48.020;16.720;2023-08-31T11:59:34;4.15;;;1.33;;
41514;SDS011;27247;48.020;16.720;2023-08-31T12:03:46;3.58;;;1.38;;
41514;SDS011;27247;48.020;16.720;2023-08-31T12:07:57;3.72;;;1.33;;
41514;SDS011;27247;48.020;16.720;2023-08-31T12:12:07;2.87;;;1.43;;
41514;SDS011;27247;48.020;16.720;2023-08-31T12:16:18;1.85;;;1.42;;
41514;SDS011;27247;48.020;16.720;2023-08-31T12:20:28;2.00;;;1.30;;
41514;SDS011;27247;48.020;16.720;2023-08-31T12:24:39;2.17;;;1.20;;
41514;SDS011;27247;48.020;16.720;2023-08-31T12:28:50;3.10;;;1.45;;
41514;SDS011;27247;48.020;16.720;2023-08-31T12:33:01;4.82;;;1.35;;
41514;SDS011;27247;48.020;16.720;2023-08-31T12:37:11;2.05;;;1.38;;
41514;SDS011;27247;48.020;16.720;2023-08-31T12:41:22;1.08;;;1.00;;
41514;SDS011;27247;48.020;16.720;2023-08-31T12:45:32;1.67;;;1.17;;
41514;SDS011;27247;48.020;16.720;2023-08-31T12:49:43;5.13;;;1.27;;
41514;SDS011;27247;48.020;16.720;2023-08-31T12:53:53;1.97;;;1.40;;
41514;SDS011;27247;48.020;16.720;2023-08-31T12:58:03;3.83;;;1.53;;
41514;SDS011;27247;48.020;16.720;2023-08-31T13:02:14;2.67;;;1.37;;
41514;SDS011;27247;48.020;16.720;2023-08-31T13:06:24;4.93;;;1.77;;
41514;SDS011;27247;48.020;16.720;2023-08-31T13:10:36;2.95;;;1.30;;
41514;SDS011;27247;48.020;16.720;2023-08-31T13:14:46;3.73;;;1.40;;
41514;SDS011;27247;48.020;16.720;2023-08-31T13:18:57;7.13;;;1.67;;
41514;SDS011;27247;48.020;16.720;2023-08-31T13:23:07;2.93;;;1.50;;
41514;SDS011;27247;48.020;16.720;2023-08-31T13:27:17;2.10;;;1.17;;
41514;SDS011;27247;48.020;16.720;2023-08-31T13:31:28;4.30;;;1.88;;
41514;SDS011;27247;48.020;16.720;2023-08-31T13:35:38;7.78;;;1.63;;
41514;SDS011;27247;48.020;16.720;2023-08-31T13:39:50;4.80;;;1.27;;
41514;SDS011;27247;48.020;16.720;2023-08-31T13:44:02;4.97;;;1.52;;
41514;SDS011;27247;48.020;16.720;2023-08-31T13:48:12;2.17;;;1.10;;
41514;SDS011;27247;48.020;16.720;2023-08-31T13:52:23;2.33;;;1.17;;
41514;SDS011;27247;48.020;16.720;2023-08-31T13:56:34;3.47;;;1.27;;
41514;SDS011;27247;48.020;16.720;2023-08-31T14:00:45;1.85;;;1.40;;
41514;SDS011;27247;48.020;16.720;2023-08-31T14:04:55;3.38;;;1.65;;
41514;SDS011;27247;48.020;16.720;2023-08-31T14:09:07;6.43;;;1.52;;
41514;SDS011;27247;48.020;16.720;2023-08-31T14:13:18;2.00;;;1.35;;
41514;SDS011;27247;48.020;16.720;2023-08-31T14:17:28;3.40;;;1.27;;
41514;SDS011;27247;48.020;16.720;2023-08-31T14:21:38;2.73;;;1.57;;
41514;SDS011;27247;48.020;16.720;2023-08-31T14:25:49;3.60;;;1.50;;
41514;SDS011;27247;48.020;16.720;2023-08-31T14:29:59;2.95;;;1.27;;
41514;SDS011;27247;48.020;16.720;2023-08-31T14:34:09;4.20;;;1.55;;
41514;SDS011;27247;48.020;16.720;2023-08-31T14:38:20;7.35;;;1.80;;
41514;SDS011;27247;48.020;16.720;2023-08-31T14:42:32;2.75;;;1.58;;
41514;SDS011;27247;48.020;16.720;2023-08-31T14:46:43;1.80;;;1.42;;
41514;SDS011;27247;48.020;16.720;2023-08-31T14:50:54;1.67;;;1.13;;
41514;SDS011;27247;48.020;16.720;2023-08-31T14:55:05;3.25;;;1.65;;
41514;SDS011;27247;48.020;16.720;2023-08-31T14:59:16;3.47;;;1.42;;
41514;SDS011;27247;48.020;16.720;2023-08-31T15:03:27;2.22;;;1.50;;
41514;SDS011;27247;48.020;16.720;2023-08-31T15:07:38;2.40;;;1.65;;
41514;SDS011;27247;48.020;16.720;2023-08-31T15:11:49;1.80;;;1.58;;
41514;SDS011;27247;48.020;16.720;2023-08-31T15:16:00;4.18;;;1.90;;
41514;SDS011;27247;48.020;16.720;2023-08-31T15:20:11;2.20;;;1.70;;
41514;SDS011;27247;48.020;16.720;2023-08-31T15:24:22;2.85;;;1.60;;
41514;SDS011;27247;48.020;16.720;2023-08-31T15:28:33;2.25;;;1.70;;
41514;SDS011;27247;48.020;16.720;2023-08-31T15:32:44;7.75;;;1.85;;
41514;SDS011;27247;48.020;16.720;2023-08-31T15:36:54;3.70;;;1.88;;
41514;SDS011;27247;48.020;16.720;2023-08-31T15:41:06;2.03;;;1.63;;
41514;SDS011;27247;48.020;16.720;2023-08-31T15:45:18;1.75;;;1.30;;
41514;SDS011;27247;48.020;16.720;2023-08-31T15:49:28;2.72;;;1.30;;
41514;SDS011;27247;48.020;16.720;2023-08-31T15:53:39;3.65;;;2.10;;
41514;SDS011;27247;48.020;16.720;2023-08-31T15:57:50;3.28;;;1.60;;
41514;SDS011;27247;48.020;16.720;2023-08-31T16:02:00;2.40;;;1.65;;
41514;SDS011;27247;48.020;16.720;2023-08-31T16:06:13;4.60;;;1.50;;
41514;SDS011;27247;48.020;16.720;2023-08-31T16:10:24;1.80;;;1.45;;
41514;SDS011;27247;48.020;16.720;2023-08-31T16:14:34;3.85;;;1.92;;
41514;SDS011;27247;48.020;16.720;2023-08-31T16:18:45;3.58;;;2.15;;
41514;SDS011;27247;48.020;16.720;2023-08-31T16:22:58;2.80;;;1.50;;
41514;SDS011;27247;48.020;16.720;2023-08-31T16:27:09;1.65;;;1.20;;
41514;SDS011;27247;48.020;16.720;2023-08-31T16:31:19;4.50;;;1.98;;
41514;SDS011;27247;48.020;16.720;2023-08-31T16:35:30;2.72;;;1.67;;
41514;SDS011;27247;48.020;16.720;2023-08-31T16:39:41;1.90;;;1.40;;
41514;SDS011;27247;48.020;16.720;2023-08-31T16:43:51;2.13;;;1.50;;
41514;SDS011;27247;48.020;16.720;2023-08-31T16:48:03;2.55;;;1.48;;
41514;SDS011;27247;48.020;16.720;2023-08-31T16:52:15;2.63;;;1.92;;
41514;SDS011;27247;48.020;16.720;2023-08-31T16:56:25;2.65;;;1.55;;
41514;SDS011;27247;48.020;16.720;2023-08-31T17:00:36;3.15;;;1.60;;
41514;SDS011;27247;48.020;16.720;2023-08-31T17:04:48;3.53;;;1.50;;
41514;SDS011;27247;48.020;16.720;2023-08-31T17:08:59;4.32;;;2.05;;
41514;SDS011;27247;48.020;16.720;2023-08-31T17:13:10;4.95;;;2.08;;
41514;SDS011;27247;48.020;16.720;2023-08-31T17:17:21;3.78;;;1.75;;
41514;SDS011;27247;48.020;16.720;2023-08-31T17:21:35;2.00;;;1.40;;
41514;SDS011;27247;48.020;16.720;2023-08-31T17:25:49;2.22;;;1.77;;
41514;SDS011;27247;48.020;16.720;2023-08-31T17:30:00;3.40;;;2.00;;
41514;SDS011;27247;48.020;16.720;2023-08-31T17:34:14;2.70;;;1.70;;
41514;SDS011;27247;48.020;16.720;2023-08-31T17:38:29;3.92;;;1.55;;
41514;SDS011;27247;48.020;16.720;2023-08-31T17:42:39;4.53;;;1.90;;
41514;SDS011;27247;48.020;16.720;2023-08-31T17:46:54;2.42;;;1.65;;
41514;SDS011;27247;48.020;16.720;2023-08-31T17:51:06;3.33;;;1.75;;
41514;SDS011;27247;48.020;16.720;2023-08-31T17:55:18;4.03;;;1.95;;
41514;SDS011;27247;48.020;16.720;2023-08-31T17:59:29;1.80;;;1.70;;
41514;SDS011;27247;48.020;16.720;2023-08-31T18:03:40;6.35;;;1.92;;
41514;SDS011;27247;48.020;16.720;2023-08-31T18:07:51;2.47;;;1.60;;
41514;SDS011;27247;48.020;16.720;2023-08-31T18:12:08;2.80;;;1.77;;
41514;SDS011;27247;48.020;16.720;2023-08-31T18:16:19;6.53;;;1.80;;
41514;SDS011;27247;48.020;16.720;2023-08-31T18:20:32;4.40;;;1.98;;
41514;SDS011;27247;48.020;16.720;2023-08-31T18:24:43;6.00;;;1.80;;
41514;SDS011;27247;48.020;16.720;2023-08-31T18:28:54;2.65;;;1.50;;
41514;SDS011;27247;48.020;16.720;2023-08-31T18:33:05;2.90;;;1.67;;
41514;SDS011;27247;48.020;16.720;2023-08-31T18:37:16;3.05;;;1.85;;
41514;SDS011;27247;48.020;16.720;2023-08-31T18:41:27;5.88;;;1.88;;
41514;SDS011;27247;48.020;16.720;2023-08-31T18:45:43;3.63;;;1.40;;
41514;SDS011;27247;48.020;16.720;2023-08-31T18:49:55;2.53;;;2.00;;
41514;SDS011;27247;48.020;16.720;2023-08-31T18:54:06;3.45;;;1.70;;
41514;SDS011;27247;48.020;16.720;2023-08-31T18:58:16;4.68;;;1.90;;
41514;SDS011;27247;48.020;16.720;2023-08-31T19:02:27;4.13;;;1.63;;
41514;SDS011;27247;48.020;16.720;2023-08-31T19:06:38;3.63;;;1.90;;
41514;SDS011;27247;48.020;16.720;2023-08-31T19:10:49;3.78;;;2.03;;
41514;SDS011;27247;48.020;16.720;2023-08-31T19:15:00;2.90;;;1.90;;
41514;SDS011;27247;48.020;16.720;2023-08-31T19:19:11;3.13;;;1.60;;
41514;SDS011;27247;48.020;16.720;2023-08-31T19:23:23;5.70;;;2.10;;
41514;SDS011;27247;48.020;16.720;2023-08-31T19:27:34;3.45;;;1.95;;
41514;SDS011;27247;48.020;16.720;2023-08-31T19:31:45;6.10;;;2.10;;
41514;SDS011;27247;48.020;16.720;2023-08-31T19:35:56;4.50;;;1.80;;
41514;SDS011;27247;48.020;16.720;2023-08-31T19:40:07;2.88;;;2.10;;
41514;SDS011;27247;48.020;16.720;2023-08-31T19:44:21;5.15;;;2.03;;
41514;SDS011;27247;48.020;16.720;2023-08-31T19:48:33;2.65;;;1.85;;
41514;SDS011;27247;48.020;16.720;2023-08-31T19:52:44;4.47;;;1.90;;
41514;SDS011;27247;48.020;16.720;2023-08-31T19:56:56;3.38;;;1.75;;
41514;SDS011;27247;48.020;16.720;2023-08-31T20:01:07;3.40;;;1.75;;
41514;SDS011;27247;48.020;16.720;2023-08-31T20:05:17;3.38;;;2.17;;
41514;SDS011;27247;48.020;16.720;2023-08-31T20:09:33;4.32;;;2.50;;
41514;SDS011;27247;48.020;16.720;2023-08-31T20:13:44;4.13;;;1.85;;
41514;SDS011;27247;48.020;16.720;2023-08-31T20:17:54;2.63;;;1.80;;
41514;SDS011;27247;48.020;16.720;2023-08-31T20:22:05;4.00;;;2.20;;
41514;SDS011;27247;48.020;16.720;2023-08-31T20:26:16;3.13;;;2.10;;
41514;SDS011;27247;48.020;16.720;2023-08-31T20:30:26;2.70;;;2.03;;
41514;SDS011;27247;48.020;16.720;2023-08-31T20:34:40;3.42;;;1.95;;
41514;SDS011;27247;48.020;16.720;2023-08-31T20:38:50;4.53;;;2.13;;
41514;SDS011;27247;48.020;16.720;2023-08-31T20:43:03;7.00;;;3.05;;
41514;SDS011;27247;48.020;16.720;2023-08-31T20:47:14;4.45;;;2.53;;
41514;SDS011;27247;48.020;16.720;2023-08-31T20:51:29;3.38;;;2.33;;
41514;SDS011;27247;48.020;16.720;2023-08-31T20:55:39;4.38;;;2.33;;
41514;SDS011;27247;48.020;16.720;2023-08-31T20:59:50;3.27;;;2.20;;
41514;SDS011;27247;48.020;16.720;2023-08-31T21:04:01;4.70;;;2.28;;
41514;SDS011;27247;48.020;16.720;2023-08-31T21:08:12;4.90;;;2.30;;
41514;SDS011;27247;48.020;16.720;2023-08-31T21:12:23;3.25;;;2.00;;
41514;SDS011;27247;48.020;16.720;2023-08-31T21:16:33;6.22;;;2.35;;
41514;SDS011;27247;48.020;16.720;2023-08-31T21:20:44;4.43;;;2.60;;
41514;SDS011;27247;48.020;16.720;2023-08-31T21:24:54;2.88;;;2.28;;
41514;SDS011;27247;48.020;16.720;2023-08-31T21:29:05;3.43;;;2.37;;
41514;SDS011;27247;48.020;16.720;2023-08-31T21:33:17;3.28;;;2.40;;
41514;SDS011;27247;48.020;16.720;2023-08-31T21:37:27;4.28;;;2.17;;
41514;SDS011;27247;48.020;16.720;2023-08-31T21:41:37;2.40;;;1.90;;
41514;SDS011;27247;48.020;16.720;2023-08-31T21:45:48;2.45;;;2.22;;
41514;SDS011;27247;48.020;16.720;2023-08-31T21:49:59;2.35;;;2.15;;
41514;SDS011;27247;48.020;16.720;2023-08-31T21:54:09;2.83;;;2.10;;
41514;SDS011;27247;48.020;16.720;2023-08-31T21:58:20;3.20;;;2.10;;
41514;SDS011;27247;48.020;16.720;2023-08-31T22:02:30;3.17;;;1.90;;
41514;SDS011;27247;48.020;16.720;2023-08-31T22:06:40;3.37;;;2.13;;
41514;SDS011;27247;48.020;16.720;2023-08-31T22:10:51;2.60;;;1.70;;
41514;SDS011;27247;48.020;16.720;2023-08-31T22:15:02;4.78;;;2.15;;
41514;SDS011;27247;48.020;16.720;2023-08-31T22:19:17;2.72;;;2.22;;
41514;SDS011;27247;48.020;16.720;2023-08-31T22:23:27;3.78;;;2.20;;
41514;SDS011;27247;48.020;16.720;2023-08-31T22:27:38;4.97;;;2.65;;
41514;SDS011;27247;48.020;16.720;2023-08-31T22:31:48;3.83;;;2.45;;
41514;SDS011;27247;48.020;16.720;2023-08-31T22:36:01;4.45;;;2.60;;
41514;SDS011;27247;48.020;16.720;2023-08-31T22:40:13;3.83;;;2.17;;
41514;SDS011;27247;48.020;16.720;2023-08-31T22:44:24;3.20;;;2.13;;
41514;SDS011;27247;48.020;16.720;2023-08-31T22:48:34;4.53;;;2.33;;
41514;SDS011;27247;48.020;16.720;2023-08-31T22:52:45;3.33;;;2.13;;
41514;SDS011;27247;48.020;16.720;2023-08-31T22:56:55;2.47;;;1.90;;
41514;SDS011;27247;48.020;16.720;2023-08-31T23:01:05;2.65;;;2.03;;
41514;SDS011;27247;48.020;16.720;2023-08-31T23:05:17;4.78;;;2.47;;
41514;SDS011;27247;48.020;16.720;2023-08-31T23:09:27;3.43;;;2.53;;
41514;SDS011;27247;48.020;16.720;2023-08-31T23:13:38;3.67;;;2.65;;
41514;SDS011;27247;48.020;16.720;2023-08-31T23:17:49;4.63;;;3.00;;
41514;SDS011;27247;48.020;16.720;2023-08-31T23:21:59;2.33;;;2.13;;
41514;SDS011;27247;48.020;16.720;2023-08-31T23:26:10;2.97;;;2.22;;
41514;SDS011;27247;48.020;16.720;2023-08-31T23:30:20;6.18;;;2.88;;
41514;SDS011;27247;48.020;16.720;2023-08-31T23:34:30;4.22;;;2.63;;
41514;SDS011;27247;48.020;16.720;2023-08-31T23:38:41;5.17;;;3.00;;
41514;SDS011;27247;48.020;16.720;2023-08-31T23:42:52;5.25;;;2.50;;
41514;SDS011;27247;48.020;16.720;2023-08-31T23:47:02;3.30;;;2.63;;
41514;SDS011;27247;48.020;16.720;2023-08-31T23:51:13;4.78;;;2.50;;
41514;SDS011;27247;48.020;16.720;2023-08-31T23:55:23;2.90;;;2.60;;
41514;SDS011;27247;48.020;16.720;2023-08-31T23:59:33;4.43;;;2.45;;
